Jackson Evers International Airport
KJAN : rendu visible

Aérodrome :











RETROUVEZ-NOUS SUR...

 
LOGIN :

S'inscrire | Disclaimer

   EN    FR    IT 

 









Légende :    VFR   VFR Marginal   IFR   IFR Intensif   IFR Très Intensif
Visi : 
Plafond : 
>= 8 km
>= 3000ft
5 à 8 km
1000 à 3000 ft
1500m à 5 km
500 à 1000 ft
800 à 1500m
200 à 500 ft
< 800m
< 200 ft
Symboles :   Orages  Brouillard  Fortes neiges  Fortes précipitations  Vent > 20 kt






- Altitude de l'aérodrome : 346 ft
- Code IATA : JAN


KJAN - Jackson Evers International

DERNIER METAR :
  • 100701Z 20008KT 10SM SCT014 BKN040 OVC065 21/19 A2991 RMK AO2 T02110189

METARs EXPIRÉS :
  • 100654Z 19008KT 10SM BKN014 BKN022 OVC040 21/19 A2991 RMK AO2 RAB39E54 SLP125 P0000 T02110189
  • 100554Z 20009G18KT 10SM BKN016 OVC021 22/19 A2991 RMK AO2 SLP124 60041 T02170189 10217 20206 402390122 53004
  • 100515Z 20008KT 8SM BKN015 OVC022 21/19 A2990 RMK AO2 T02110189
  • 100454Z 19009KT 7SM BKN013 21/19 A2990 RMK AO2 SLP121 T02110189
  • 100429Z 19009KT 7SM SCT013 SCT080 21/19 A2990 RMK AO2 T02110189

TAF KJAN
Valide du 10 à 06h jusqu'au 11 à 06h UTC


100557Z 1006/1106 21006KT P6SM VCSH OVC015
FM100800 22007KT 4SM -SHRA OVC015
FM101000 32011KT 4SM -RA OVC015
FM101400 36015KT 2SM -RA BR OVC007
FM110000 36016KT 4SM -RA BR OVC007



MET'MAP, la Météo Aéronautique d'un coup d'oeil ! - Copyright ORBIFLY Décembre 2007 - Disclaimer

ORBIFLY MET'MAP TEAM :

Programmation & Développement : Alexandra Zaïnal
Sur une idée originale de : Baudouin d'Aumeries
Assistance à la programmation : Marc-Olivier Méhu
Soutien technique & logistique : Manuel Goepfert

Contact : metmap@orbifly.com




SOURCES & CREDITS :

   NOAA       Earth
Advisory